sensor_id;sensor_type;location;lat;lon;timestamp;pressure;altitude;pressure_sealevel;temperature;humidity
21826;BME280;11075;47.944;11.776;2023-12-20T00:02:12;94823.81;;;4.14;41.12
21826;BME280;11075;47.944;11.776;2023-12-20T00:04:39;94779.41;;;3.69;43.49
21826;BME280;11075;47.944;11.776;2023-12-20T00:07:06;94803.16;;;3.69;42.04
21826;BME280;11075;47.944;11.776;2023-12-20T00:09:33;94819.56;;;4.08;41.37
21826;BME280;11075;47.944;11.776;2023-12-20T00:12:00;94772.91;;;3.18;44.03
21826;BME280;11075;47.944;11.776;2023-12-20T00:14:27;94769.03;;;3.57;43.26
21826;BME280;11075;47.944;11.776;2023-12-20T00:16:54;94760.31;;;3.57;43.64
21826;BME280;11075;47.944;11.776;2023-12-20T00:19:21;94727.63;;;2.67;45.63
21826;BME280;11075;47.944;11.776;2023-12-20T00:21:48;94772.00;;;3.34;42.76
21826;BME280;11075;47.944;11.776;2023-12-20T00:24:15;94770.28;;;3.82;42.69
21826;BME280;11075;47.944;11.776;2023-12-20T00:26:43;94778.50;;;3.53;42.02
21826;BME280;11075;47.944;11.776;2023-12-20T00:29:09;94739.97;;;3.52;43.99
21826;BME280;11075;47.944;11.776;2023-12-20T00:31:36;94757.44;;;3.63;43.56
21826;BME280;11075;47.944;11.776;2023-12-20T00:34:03;94755.78;;;3.52;43.14
21826;BME280;11075;47.944;11.776;2023-12-20T00:36:30;94752.78;;;3.76;43.17
21826;BME280;11075;47.944;11.776;2023-12-20T00:38:57;94751.28;;;3.85;42.48
21826;BME280;11075;47.944;11.776;2023-12-20T00:41:24;94733.53;;;4.22;42.89
21826;BME280;11075;47.944;11.776;2023-12-20T00:43:51;94718.06;;;3.20;44.83
21826;BME280;11075;47.944;11.776;2023-12-20T00:46:17;94707.31;;;1.97;47.10
21826;BME280;11075;47.944;11.776;2023-12-20T00:48:44;94724.88;;;2.84;46.08
21826;BME280;11075;47.944;11.776;2023-12-20T00:51:12;94742.88;;;3.93;43.98
21826;BME280;11075;47.944;11.776;2023-12-20T00:53:39;94721.56;;;3.62;45.30
21826;BME280;11075;47.944;11.776;2023-12-20T00:56:06;94716.53;;;2.65;47.05
21826;BME280;11075;47.944;11.776;2023-12-20T00:58:33;94733.78;;;3.37;45.64
21826;BME280;11075;47.944;11.776;2023-12-20T01:00:59;94720.78;;;2.98;47.59
21826;BME280;11075;47.944;11.776;2023-12-20T01:03:26;94732.19;;;2.50;47.83
21826;BME280;11075;47.944;11.776;2023-12-20T01:05:53;94715.72;;;2.38;47.64
21826;BME280;11075;47.944;11.776;2023-12-20T01:08:20;94752.47;;;2.49;45.47
21826;BME280;11075;47.944;11.776;2023-12-20T01:10:47;94730.63;;;3.08;46.39
21826;BME280;11075;47.944;11.776;2023-12-20T01:13:13;94734.69;;;3.20;45.71
21826;BME280;11075;47.944;11.776;2023-12-20T01:15:41;94711.16;;;2.82;46.90
21826;BME280;11075;47.944;11.776;2023-12-20T01:18:08;94708.66;;;2.70;48.33
21826;BME280;11075;47.944;11.776;2023-12-20T01:20:35;94720.50;;;1.42;49.70
21826;BME280;11075;47.944;11.776;2023-12-20T01:23:02;94706.00;;;1.39;50.30
21826;BME280;11075;47.944;11.776;2023-12-20T01:25:29;94723.88;;;2.63;46.96
21826;BME280;11075;47.944;11.776;2023-12-20T01:27:56;94705.38;;;2.85;46.62
21826;BME280;11075;47.944;11.776;2023-12-20T01:30:23;94698.00;;;3.14;44.73
21826;BME280;11075;47.944;11.776;2023-12-20T01:32:51;94710.66;;;2.14;45.74
21826;BME280;11075;47.944;11.776;2023-12-20T01:35:18;94676.94;;;1.67;48.50
21826;BME280;11075;47.944;11.776;2023-12-20T01:37:45;94713.94;;;2.97;44.92
21826;BME280;11075;47.944;11.776;2023-12-20T01:40:12;94692.09;;;3.02;45.14
21826;BME280;11075;47.944;11.776;2023-12-20T01:42:39;94672.50;;;2.92;45.52
21826;BME280;11075;47.944;11.776;2023-12-20T01:45:06;94677.72;;;2.87;46.55
21826;BME280;11075;47.944;11.776;2023-12-20T01:47:33;94670.75;;;2.00;46.51
21826;BME280;11075;47.944;11.776;2023-12-20T01:50:01;94669.22;;;3.49;44.71
21826;BME280;11075;47.944;11.776;2023-12-20T01:52:31;94647.44;;;2.31;46.30
21826;BME280;11075;47.944;11.776;2023-12-20T01:55:01;94658.75;;;2.58;46.21
21826;BME280;11075;47.944;11.776;2023-12-20T01:57:30;94668.34;;;3.39;44.61
21826;BME280;11075;47.944;11.776;2023-12-20T01:59:57;94660.88;;;3.68;44.04
21826;BME280;11075;47.944;11.776;2023-12-20T02:02:25;94623.56;;;2.43;47.81
21826;BME280;11075;47.944;11.776;2023-12-20T02:04:54;94651.88;;;2.84;44.91
21826;BME280;11075;47.944;11.776;2023-12-20T02:07:22;94630.97;;;3.10;46.23
21826;BME280;11075;47.944;11.776;2023-12-20T02:09:50;94655.91;;;3.29;44.38
21826;BME280;11075;47.944;11.776;2023-12-20T02:12:17;94665.34;;;3.62;43.05
21826;BME280;11075;47.944;11.776;2023-12-20T02:14:43;94647.09;;;4.08;43.11
21826;BME280;11075;47.944;11.776;2023-12-20T02:17:10;94647.03;;;3.92;42.63
21826;BME280;11075;47.944;11.776;2023-12-20T02:19:37;94583.38;;;2.25;47.16
21826;BME280;11075;47.944;11.776;2023-12-20T02:22:08;94629.44;;;3.61;43.59
21826;BME280;11075;47.944;11.776;2023-12-20T02:24:35;94607.16;;;3.37;44.54
21826;BME280;11075;47.944;11.776;2023-12-20T02:27:03;94620.75;;;2.49;44.81
21826;BME280;11075;47.944;11.776;2023-12-20T02:29:32;94612.78;;;3.08;44.37
21826;BME280;11075;47.944;11.776;2023-12-20T02:31:59;94617.97;;;2.98;44.08
21826;BME280;11075;47.944;11.776;2023-12-20T02:34:26;94619.66;;;3.56;43.38
21826;BME280;11075;47.944;11.776;2023-12-20T02:36:53;94615.63;;;3.02;44.09
21826;BME280;11075;47.944;11.776;2023-12-20T02:39:21;94626.59;;;3.73;42.90
21826;BME280;11075;47.944;11.776;2023-12-20T02:41:48;94638.34;;;3.97;41.40
21826;BME280;11075;47.944;11.776;2023-12-20T02:44:15;94605.00;;;3.33;42.92
21826;BME280;11075;47.944;11.776;2023-12-20T02:46:42;94604.41;;;3.21;43.55
21826;BME280;11075;47.944;11.776;2023-12-20T02:49:09;94603.16;;;3.34;42.78
21826;BME280;11075;47.944;11.776;2023-12-20T02:51:36;94588.63;;;3.26;43.52
21826;BME280;11075;47.944;11.776;2023-12-20T02:54:05;94595.97;;;3.72;42.50
21826;BME280;11075;47.944;11.776;2023-12-20T02:56:32;94589.06;;;3.65;42.81
21826;BME280;11075;47.944;11.776;2023-12-20T02:58:59;94581.81;;;3.36;42.64
21826;BME280;11075;47.944;11.776;2023-12-20T03:01:27;94593.78;;;3.58;42.33
21826;BME280;11075;47.944;11.776;2023-12-20T03:03:54;94570.53;;;3.50;43.56
21826;BME280;11075;47.944;11.776;2023-12-20T03:06:21;94590.31;;;4.15;42.01
21826;BME280;11075;47.944;11.776;2023-12-20T03:08:48;94569.91;;;3.28;43.21
21826;BME280;11075;47.944;11.776;2023-12-20T03:11:15;94575.19;;;3.80;42.79
21826;BME280;11075;47.944;11.776;2023-12-20T03:13:42;94579.06;;;3.68;42.84
21826;BME280;11075;47.944;11.776;2023-12-20T03:16:13;94562.25;;;3.26;43.38
21826;BME280;11075;47.944;11.776;2023-12-20T03:18:40;94573.16;;;3.45;42.72
21826;BME280;11075;47.944;11.776;2023-12-20T03:21:07;94579.72;;;4.05;42.17
21826;BME280;11075;47.944;11.776;2023-12-20T03:23:34;94577.81;;;3.80;42.22
21826;BME280;11075;47.944;11.776;2023-12-20T03:26:01;94588.44;;;3.95;42.03
21826;BME280;11075;47.944;11.776;2023-12-20T03:28:28;94565.41;;;3.86;42.47
21826;BME280;11075;47.944;11.776;2023-12-20T03:30:55;94580.25;;;4.02;41.90
21826;BME280;11075;47.944;11.776;2023-12-20T03:33:22;94556.00;;;3.43;43.56
21826;BME280;11075;47.944;11.776;2023-12-20T03:35:49;94595.63;;;4.20;41.81
21826;BME280;11075;47.944;11.776;2023-12-20T03:38:15;94576.31;;;4.10;42.72
21826;BME280;11075;47.944;11.776;2023-12-20T03:40:42;94574.53;;;3.58;43.29
21826;BME280;11075;47.944;11.776;2023-12-20T03:43:09;94588.03;;;3.67;42.92
21826;BME280;11075;47.944;11.776;2023-12-20T03:45:36;94600.38;;;4.23;41.83
21826;BME280;11075;47.944;11.776;2023-12-20T03:48:03;94578.47;;;3.55;43.06
21826;BME280;11075;47.944;11.776;2023-12-20T03:50:30;94591.91;;;4.11;42.00
21826;BME280;11075;47.944;11.776;2023-12-20T03:52:57;94566.78;;;3.36;43.67
21826;BME280;11075;47.944;11.776;2023-12-20T03:55:24;94582.97;;;3.55;42.86
21826;BME280;11075;47.944;11.776;2023-12-20T03:57:51;94583.66;;;3.92;42.81
21826;BME280;11075;47.944;11.776;2023-12-20T04:00:18;94593.41;;;3.87;43.41
21826;BME280;11075;47.944;11.776;2023-12-20T04:02:45;94591.63;;;4.03;43.22
21826;BME280;11075;47.944;11.776;2023-12-20T04:05:12;94594.75;;;3.94;43.84
21826;BME280;11075;47.944;11.776;2023-12-20T04:07:39;94623.94;;;4.45;42.57
21826;BME280;11075;47.944;11.776;2023-12-20T04:10:06;94601.34;;;3.87;44.24
21826;BME280;11075;47.944;11.776;2023-12-20T04:12:33;94610.13;;;3.50;44.74
21826;BME280;11075;47.944;11.776;2023-12-20T04:15:00;94601.75;;;3.63;45.13
21826;BME280;11075;47.944;11.776;2023-12-20T04:17:27;94625.28;;;4.53;43.56
21826;BME280;11075;47.944;11.776;2023-12-20T04:19:54;94607.69;;;3.96;44.60
21826;BME280;11075;47.944;11.776;2023-12-20T04:22:21;94621.56;;;4.44;44.87
21826;BME280;11075;47.944;11.776;2023-12-20T04:24:48;94631.66;;;4.77;44.35
21826;BME280;11075;47.944;11.776;2023-12-20T04:27:15;94623.44;;;4.69;44.43
21826;BME280;11075;47.944;11.776;2023-12-20T04:29:41;94634.00;;;4.64;44.37
21826;BME280;11075;47.944;11.776;2023-12-20T04:32:08;94610.94;;;4.13;45.61
21826;BME280;11075;47.944;11.776;2023-12-20T04:34:36;94615.97;;;4.20;46.13
21826;BME280;11075;47.944;11.776;2023-12-20T04:37:03;94644.47;;;4.18;46.76
21826;BME280;11075;47.944;11.776;2023-12-20T04:39:30;94639.50;;;4.26;46.29
21826;BME280;11075;47.944;11.776;2023-12-20T04:41:57;94636.31;;;4.24;46.84
21826;BME280;11075;47.944;11.776;2023-12-20T04:44:24;94642.47;;;3.78;47.64
21826;BME280;11075;47.944;11.776;2023-12-20T04:46:50;94657.66;;;4.13;48.03
21826;BME280;11075;47.944;11.776;2023-12-20T04:49:17;94638.63;;;3.53;49.05
21826;BME280;11075;47.944;11.776;2023-12-20T04:51:44;94631.06;;;3.25;51.06
21826;BME280;11075;47.944;11.776;2023-12-20T04:54:11;94626.78;;;3.61;50.96
21826;BME280;11075;47.944;11.776;2023-12-20T04:56:38;94628.75;;;3.33;51.80
21826;BME280;11075;47.944;11.776;2023-12-20T04:59:05;94638.31;;;3.92;51.24
21826;BME280;11075;47.944;11.776;2023-12-20T05:01:32;94642.66;;;3.66;51.80
21826;BME280;11075;47.944;11.776;2023-12-20T05:03:59;94643.19;;;4.25;50.77
21826;BME280;11075;47.944;11.776;2023-12-20T05:06:26;94652.16;;;3.67;52.01
21826;BME280;11075;47.944;11.776;2023-12-20T05:08:53;94653.75;;;3.68;52.21
21826;BME280;11075;47.944;11.776;2023-12-20T05:11:19;94649.22;;;3.16;54.10
21826;BME280;11075;47.944;11.776;2023-12-20T05:13:46;94665.81;;;4.01;52.92
21826;BME280;11075;47.944;11.776;2023-12-20T05:16:16;94657.66;;;3.55;54.28
21826;BME280;11075;47.944;11.776;2023-12-20T05:18:46;94660.06;;;4.19;53.35
21826;BME280;11075;47.944;11.776;2023-12-20T05:21:14;94662.75;;;3.30;55.98
21826;BME280;11075;47.944;11.776;2023-12-20T05:23:40;94673.28;;;3.25;56.16
21826;BME280;11075;47.944;11.776;2023-12-20T05:26:07;94677.13;;;5.00;51.99
21826;BME280;11075;47.944;11.776;2023-12-20T05:28:34;94679.72;;;3.81;55.75
21826;BME280;11075;47.944;11.776;2023-12-20T05:31:01;94679.03;;;4.06;55.25
21826;BME280;11075;47.944;11.776;2023-12-20T05:33:28;94690.53;;;3.80;55.80
21826;BME280;11075;47.944;11.776;2023-12-20T05:35:55;94695.28;;;3.78;56.05
21826;BME280;11075;47.944;11.776;2023-12-20T05:38:22;94689.88;;;3.62;56.84
21826;BME280;11075;47.944;11.776;2023-12-20T05:40:49;94694.44;;;4.24;55.57
21826;BME280;11075;47.944;11.776;2023-12-20T05:43:15;94695.50;;;4.28;55.46
21826;BME280;11075;47.944;11.776;2023-12-20T05:45:42;94695.00;;;4.42;55.02
21826;BME280;11075;47.944;11.776;2023-12-20T05:48:09;94699.59;;;3.52;57.50
21826;BME280;11075;47.944;11.776;2023-12-20T05:50:36;94706.72;;;4.71;54.65
21826;BME280;11075;47.944;11.776;2023-12-20T05:53:03;94710.09;;;4.46;54.78
21826;BME280;11075;47.944;11.776;2023-12-20T05:55:30;94717.84;;;4.01;56.02
21826;BME280;11075;47.944;11.776;2023-12-20T05:57:57;94725.91;;;4.31;56.11
21826;BME280;11075;47.944;11.776;2023-12-20T06:00:24;94724.56;;;4.28;56.48
21826;BME280;11075;47.944;11.776;2023-12-20T06:02:51;94714.59;;;3.88;57.00
21826;BME280;11075;47.944;11.776;2023-12-20T06:05:18;94725.75;;;4.68;55.46
21826;BME280;11075;47.944;11.776;2023-12-20T06:07:45;94723.13;;;3.63;58.11
21826;BME280;11075;47.944;11.776;2023-12-20T06:10:15;94739.00;;;4.06;56.94
21826;BME280;11075;47.944;11.776;2023-12-20T06:12:42;94734.94;;;3.51;59.59
21826;BME280;11075;47.944;11.776;2023-12-20T06:15:09;94749.97;;;4.40;56.56
21826;BME280;11075;47.944;11.776;2023-12-20T06:17:36;94742.94;;;3.66;58.69
21826;BME280;11075;47.944;11.776;2023-12-20T06:20:03;94743.88;;;3.82;58.74
21826;BME280;11075;47.944;11.776;2023-12-20T06:22:35;94745.28;;;4.00;57.34
21826;BME280;11075;47.944;11.776;2023-12-20T06:25:02;94750.59;;;2.98;60.36
21826;BME280;11075;47.944;11.776;2023-12-20T06:27:29;94749.88;;;3.40;58.82
21826;BME280;11075;47.944;11.776;2023-12-20T06:29:57;94756.41;;;3.00;59.88
21826;BME280;11075;47.944;11.776;2023-12-20T06:32:24;94744.84;;;3.71;57.28
21826;BME280;11075;47.944;11.776;2023-12-20T06:34:50;94749.50;;;2.94;59.60
21826;BME280;11075;47.944;11.776;2023-12-20T06:37:18;94754.69;;;3.80;57.91
21826;BME280;11075;47.944;11.776;2023-12-20T06:39:45;94764.34;;;3.70;58.63
21826;BME280;11075;47.944;11.776;2023-12-20T06:42:12;94768.03;;;4.06;56.93
21826;BME280;11075;47.944;11.776;2023-12-20T06:44:39;94766.59;;;3.83;57.34
21826;BME280;11075;47.944;11.776;2023-12-20T06:47:06;94772.25;;;3.64;57.95
21826;BME280;11075;47.944;11.776;2023-12-20T06:49:33;94788.06;;;3.00;60.00
21826;BME280;11075;47.944;11.776;2023-12-20T06:52:00;94787.06;;;3.71;58.25
21826;BME280;11075;47.944;11.776;2023-12-20T06:54:27;94802.44;;;3.47;57.93
21826;BME280;11075;47.944;11.776;2023-12-20T06:56:54;94795.28;;;3.42;57.97
21826;BME280;11075;47.944;11.776;2023-12-20T06:59:21;94806.97;;;3.51;58.51
21826;BME280;11075;47.944;11.776;2023-12-20T07:01:50;94814.75;;;3.68;59.06
21826;BME280;11075;47.944;11.776;2023-12-20T07:04:17;94816.47;;;3.52;57.85
21826;BME280;11075;47.944;11.776;2023-12-20T07:06:49;94834.22;;;3.30;58.88
21826;BME280;11075;47.944;11.776;2023-12-20T07:09:18;94820.97;;;3.84;56.97
21826;BME280;11075;47.944;11.776;2023-12-20T07:11:45;94827.25;;;2.92;59.82
21826;BME280;11075;47.944;11.776;2023-12-20T07:14:12;94825.97;;;3.80;56.93
21826;BME280;11075;47.944;11.776;2023-12-20T07:16:39;94829.34;;;3.76;57.20
21826;BME280;11075;47.944;11.776;2023-12-20T07:19:06;94830.69;;;2.92;60.10
21826;BME280;11075;47.944;11.776;2023-12-20T07:21:34;94822.06;;;3.02;60.03
21826;BME280;11075;47.944;11.776;2023-12-20T07:24:00;94826.66;;;3.12;57.91
21826;BME280;11075;47.944;11.776;2023-12-20T07:26:27;94833.16;;;3.90;57.42
21826;BME280;11075;47.944;11.776;2023-12-20T07:28:54;94837.09;;;3.02;59.57
21826;BME280;11075;47.944;11.776;2023-12-20T07:31:21;94846.44;;;2.87;59.16
21826;BME280;11075;47.944;11.776;2023-12-20T07:33:48;94843.69;;;3.26;59.84
21826;BME280;11075;47.944;11.776;2023-12-20T07:36:15;94846.03;;;2.74;60.11
21826;BME280;11075;47.944;11.776;2023-12-20T07:38:42;94850.88;;;3.09;58.00
21826;BME280;11075;47.944;11.776;2023-12-20T07:41:10;94856.44;;;3.93;56.23
21826;BME280;11075;47.944;11.776;2023-12-20T07:43:37;94859.50;;;3.53;57.42
21826;BME280;11075;47.944;11.776;2023-12-20T07:46:06;94855.09;;;2.83;60.55
21826;BME280;11075;47.944;11.776;2023-12-20T07:48:34;94853.69;;;2.75;60.55
21826;BME280;11075;47.944;11.776;2023-12-20T07:51:02;94856.59;;;3.00;59.08
21826;BME280;11075;47.944;11.776;2023-12-20T07:53:29;94852.13;;;3.28;58.47
21826;BME280;11075;47.944;11.776;2023-12-20T07:55:56;94853.88;;;3.44;57.94
21826;BME280;11075;47.944;11.776;2023-12-20T07:58:23;94860.25;;;3.48;57.91
21826;BME280;11075;47.944;11.776;2023-12-20T08:01:06;94860.22;;;2.94;59.45
21826;BME280;11075;47.944;11.776;2023-12-20T08:03:33;94850.25;;;3.23;58.33
21826;BME280;11075;47.944;11.776;2023-12-20T08:06:00;94846.91;;;3.60;57.24
21826;BME280;11075;47.944;11.776;2023-12-20T08:08:27;94849.25;;;3.29;57.61
21826;BME280;11075;47.944;11.776;2023-12-20T08:10:54;94861.94;;;3.32;58.61
21826;BME280;11075;47.944;11.776;2023-12-20T08:13:21;94862.06;;;3.75;58.20
21826;BME280;11075;47.944;11.776;2023-12-20T08:15:53;94867.25;;;3.91;56.51
21826;BME280;11075;47.944;11.776;2023-12-20T08:18:20;94880.09;;;2.58;59.16
21826;BME280;11075;47.944;11.776;2023-12-20T08:20:47;94870.59;;;2.79;59.58
21826;BME280;11075;47.944;11.776;2023-12-20T08:23:15;94871.78;;;3.69;57.06
21826;BME280;11075;47.944;11.776;2023-12-20T08:25:42;94870.56;;;3.23;57.58
21826;BME280;11075;47.944;11.776;2023-12-20T08:28:09;94870.94;;;2.44;61.31
21826;BME280;11075;47.944;11.776;2023-12-20T08:30:35;94888.38;;;2.67;59.54
21826;BME280;11075;47.944;11.776;2023-12-20T08:33:03;94877.78;;;3.32;57.83
21826;BME280;11075;47.944;11.776;2023-12-20T08:35:30;94872.53;;;3.64;57.71
21826;BME280;11075;47.944;11.776;2023-12-20T08:37:57;94884.06;;;3.05;57.23
21826;BME280;11075;47.944;11.776;2023-12-20T08:40:23;94888.34;;;3.11;58.31
21826;BME280;11075;47.944;11.776;2023-12-20T08:42:50;94888.22;;;2.35;60.75
21826;BME280;11075;47.944;11.776;2023-12-20T08:45:17;94894.63;;;3.80;56.30
21826;BME280;11075;47.944;11.776;2023-12-20T08:47:44;94889.41;;;3.10;58.49
21826;BME280;11075;47.944;11.776;2023-12-20T08:50:12;94892.13;;;2.32;61.59
21826;BME280;11075;47.944;11.776;2023-12-20T08:52:39;94893.50;;;3.49;57.88
21826;BME280;11075;47.944;11.776;2023-12-20T08:55:06;94891.59;;;3.18;58.35
21826;BME280;11075;47.944;11.776;2023-12-20T08:57:33;94897.91;;;3.98;55.53
21826;BME280;11075;47.944;11.776;2023-12-20T09:00:00;94894.53;;;4.02;54.74
21826;BME280;11075;47.944;11.776;2023-12-20T09:02:27;94890.31;;;2.98;59.08
21826;BME280;11075;47.944;11.776;2023-12-20T09:04:54;94888.53;;;3.80;57.01
21826;BME280;11075;47.944;11.776;2023-12-20T09:07:25;94897.38;;;2.93;59.28
21826;BME280;11075;47.944;11.776;2023-12-20T09:09:53;94895.22;;;3.12;57.61
21826;BME280;11075;47.944;11.776;2023-12-20T09:12:20;94893.03;;;2.60;59.71
21826;BME280;11075;47.944;11.776;2023-12-20T09:14:49;94894.00;;;2.54;59.90
21826;BME280;11075;47.944;11.776;2023-12-20T09:17:17;94888.94;;;4.36;54.18
21826;BME280;11075;47.944;11.776;2023-12-20T09:19:44;94895.03;;;3.18;57.70
21826;BME280;11075;47.944;11.776;2023-12-20T09:22:12;94896.84;;;2.91;59.04
21826;BME280;11075;47.944;11.776;2023-12-20T09:24:39;94900.38;;;3.50;57.27
21826;BME280;11075;47.944;11.776;2023-12-20T09:27:06;94895.53;;;3.69;56.58
21826;BME280;11075;47.944;11.776;2023-12-20T09:29:33;94888.97;;;2.96;59.13
21826;BME280;11075;47.944;11.776;2023-12-20T09:32:00;94891.63;;;2.74;58.77
21826;BME280;11075;47.944;11.776;2023-12-20T09:34:27;94889.16;;;3.11;57.32
21826;BME280;11075;47.944;11.776;2023-12-20T09:36:54;94888.63;;;3.36;57.19
21826;BME280;11075;47.944;11.776;2023-12-20T09:39:21;94893.59;;;3.59;57.01
21826;BME280;11075;47.944;11.776;2023-12-20T09:42:00;94879.72;;;4.01;55.74
21826;BME280;11075;47.944;11.776;2023-12-20T09:44:28;94881.03;;;3.99;54.85
21826;BME280;11075;47.944;11.776;2023-12-20T09:46:56;94891.03;;;3.96;55.96
21826;BME280;11075;47.944;11.776;2023-12-20T09:49:25;94890.03;;;2.73;58.07
21826;BME280;11075;47.944;11.776;2023-12-20T09:51:54;94889.38;;;3.58;56.76
21826;BME280;11075;47.944;11.776;2023-12-20T09:54:22;94883.88;;;3.92;56.15
21826;BME280;11075;47.944;11.776;2023-12-20T09:56:49;94871.41;;;4.19;56.11
21826;BME280;11075;47.944;11.776;2023-12-20T09:59:16;94866.03;;;5.09;53.52
21826;BME280;11075;47.944;11.776;2023-12-20T10:01:43;94878.31;;;3.08;58.44
21826;BME280;11075;47.944;11.776;2023-12-20T10:04:12;94880.97;;;3.35;58.70
21826;BME280;11075;47.944;11.776;2023-12-20T10:06:55;94873.63;;;3.69;56.39
21826;BME280;11075;47.944;11.776;2023-12-20T10:09:23;94869.88;;;4.76;53.92
21826;BME280;11075;47.944;11.776;2023-12-20T10:11:54;94852.91;;;4.67;55.01
21826;BME280;11075;47.944;11.776;2023-12-20T10:14:21;94856.38;;;3.88;55.78
21826;BME280;11075;47.944;11.776;2023-12-20T10:16:50;94851.09;;;3.29;57.73
21826;BME280;11075;47.944;11.776;2023-12-20T10:19:17;94861.56;;;4.10;56.65
21826;BME280;11075;47.944;11.776;2023-12-20T10:21:45;94856.19;;;4.37;55.49
21826;BME280;11075;47.944;11.776;2023-12-20T10:24:17;94852.44;;;3.05;58.93
21826;BME280;11075;47.944;11.776;2023-12-20T10:26:44;94839.34;;;4.53;55.67
21826;BME280;11075;47.944;11.776;2023-12-20T10:29:11;94855.81;;;3.00;58.45
21826;BME280;11075;47.944;11.776;2023-12-20T10:31:38;94842.84;;;3.79;56.77
21826;BME280;11075;47.944;11.776;2023-12-20T10:34:09;94849.72;;;5.37;53.66
21826;BME280;11075;47.944;11.776;2023-12-20T10:36:36;94848.31;;;4.47;55.00
21826;BME280;11075;47.944;11.776;2023-12-20T10:39:05;94840.03;;;4.28;56.23
21826;BME280;11075;47.944;11.776;2023-12-20T10:41:36;94841.28;;;4.20;56.23
21826;BME280;11075;47.944;11.776;2023-12-20T10:44:08;94838.88;;;4.61;54.78
21826;BME280;11075;47.944;11.776;2023-12-20T10:46:37;94841.19;;;4.47;54.83
21826;BME280;11075;47.944;11.776;2023-12-20T10:49:07;94836.09;;;4.36;55.36
21826;BME280;11075;47.944;11.776;2023-12-20T10:51:36;94832.34;;;4.79;53.90
21826;BME280;11075;47.944;11.776;2023-12-20T10:54:04;94832.53;;;4.62;54.51
21826;BME280;11075;47.944;11.776;2023-12-20T10:56:32;94827.09;;;4.32;55.81
21826;BME280;11075;47.944;11.776;2023-12-20T10:59:02;94830.78;;;4.88;54.24
21826;BME280;11075;47.944;11.776;2023-12-20T11:01:31;94829.69;;;3.84;57.48
21826;BME280;11075;47.944;11.776;2023-12-20T11:03:58;94826.06;;;3.95;57.50
21826;BME280;11075;47.944;11.776;2023-12-20T11:06:45;94831.41;;;4.48;56.00
21826;BME280;11075;47.944;11.776;2023-12-20T11:12:10;94827.91;;;5.05;54.30
21826;BME280;11075;47.944;11.776;2023-12-20T11:14:47;94821.31;;;5.07;54.44
21826;BME280;11075;47.944;11.776;2023-12-20T11:17:14;94818.50;;;5.44;53.79
21826;BME280;11075;47.944;11.776;2023-12-20T11:20:04;94818.34;;;4.83;55.60
21826;BME280;11075;47.944;11.776;2023-12-20T11:22:32;94815.66;;;4.21;55.92
21826;BME280;11075;47.944;11.776;2023-12-20T11:25:07;94820.72;;;4.85;54.63
21826;BME280;11075;47.944;11.776;2023-12-20T11:27:41;94810.81;;;5.48;52.68
21826;BME280;11075;47.944;11.776;2023-12-20T11:30:10;94816.59;;;6.26;51.05
21826;BME280;11075;47.944;11.776;2023-12-20T11:32:37;94803.25;;;4.84;54.68
21826;BME280;11075;47.944;11.776;2023-12-20T11:37:38;94801.59;;;4.63;55.58
21826;BME280;11075;47.944;11.776;2023-12-20T11:40:17;94804.66;;;5.07;54.27
21826;BME280;11075;47.944;11.776;2023-12-20T11:42:48;94806.81;;;5.25;54.15
21826;BME280;11075;47.944;11.776;2023-12-20T11:45:21;94811.19;;;4.79;54.80
21826;BME280;11075;47.944;11.776;2023-12-20T11:47:52;94798.91;;;5.81;51.96
21826;BME280;11075;47.944;11.776;2023-12-20T11:50:25;94798.31;;;3.88;57.07
21826;BME280;11075;47.944;11.776;2023-12-20T11:52:52;94799.72;;;4.53;54.88
21826;BME280;11075;47.944;11.776;2023-12-20T11:55:24;94791.31;;;4.66;55.03
21826;BME280;11075;47.944;11.776;2023-12-20T11:57:51;94803.69;;;5.58;52.70
21826;BME280;11075;47.944;11.776;2023-12-20T12:00:19;94794.78;;;4.77;55.51
21826;BME280;11075;47.944;11.776;2023-12-20T12:02:57;94794.56;;;4.26;56.54
21826;BME280;11075;47.944;11.776;2023-12-20T12:05:24;94797.56;;;5.17;54.63
21826;BME280;11075;47.944;11.776;2023-12-20T12:07:53;94802.34;;;5.56;53.44
21826;BME280;11075;47.944;11.776;2023-12-20T12:10:19;94795.69;;;5.18;53.72
21826;BME280;11075;47.944;11.776;2023-12-20T12:12:47;94790.06;;;4.26;55.37
21826;BME280;11075;47.944;11.776;2023-12-20T12:15:15;94787.25;;;5.36;53.28
21826;BME280;11075;47.944;11.776;2023-12-20T12:17:42;94787.72;;;5.08;53.85
21826;BME280;11075;47.944;11.776;2023-12-20T12:20:09;94782.94;;;5.05;54.33
21826;BME280;11075;47.944;11.776;2023-12-20T12:22:36;94785.00;;;4.82;54.51
21826;BME280;11075;47.944;11.776;2023-12-20T12:25:11;94782.75;;;5.62;53.00
21826;BME280;11075;47.944;11.776;2023-12-20T12:27:41;94791.50;;;5.83;52.34
21826;BME280;11075;47.944;11.776;2023-12-20T12:30:09;94789.66;;;5.53;52.67
21826;BME280;11075;47.944;11.776;2023-12-20T12:32:38;94779.31;;;5.31;52.98
21826;BME280;11075;47.944;11.776;2023-12-20T12:35:05;94779.78;;;5.03;53.83
21826;BME280;11075;47.944;11.776;2023-12-20T12:37:38;94785.16;;;4.50;55.42
21826;BME280;11075;47.944;11.776;2023-12-20T12:40:09;94778.94;;;4.87;53.48
21826;BME280;11075;47.944;11.776;2023-12-20T12:42:37;94776.38;;;5.99;52.16
21826;BME280;11075;47.944;11.776;2023-12-20T12:45:05;94779.31;;;5.62;52.45
21826;BME280;11075;47.944;11.776;2023-12-20T12:47:32;94789.22;;;4.73;53.91
21826;BME280;11075;47.944;11.776;2023-12-20T12:49:59;94779.22;;;4.23;55.93
21826;BME280;11075;47.944;11.776;2023-12-20T12:52:26;94773.69;;;4.97;53.08
21826;BME280;11075;47.944;11.776;2023-12-20T12:54:53;94772.31;;;4.84;53.97
21826;BME280;11075;47.944;11.776;2023-12-20T12:57:20;94766.06;;;5.77;52.16
21826;BME280;11075;47.944;11.776;2023-12-20T12:59:47;94763.94;;;5.84;51.88
21826;BME280;11075;47.944;11.776;2023-12-20T13:02:14;94763.69;;;5.35;52.97
21826;BME280;11075;47.944;11.776;2023-12-20T13:04:42;94755.22;;;5.53;52.50
21826;BME280;11075;47.944;11.776;2023-12-20T13:07:10;94755.22;;;5.28;53.70
21826;BME280;11075;47.944;11.776;2023-12-20T13:09:39;94751.78;;;5.57;53.03